sensor_id;sensor_type;location;lat;lon;timestamp;temperature;humidity
23544;DHT22;11950;51.230;4.012;2023-07-20T00:01:27;18.70;99.90
23544;DHT22;11950;51.230;4.012;2023-07-20T00:03:53;18.60;99.90
23544;DHT22;11950;51.230;4.012;2023-07-20T00:06:23;18.50;99.90
23544;DHT22;11950;51.230;4.012;2023-07-20T00:08:51;18.50;99.90
23544;DHT22;11950;51.230;4.012;2023-07-20T00:11:18;18.50;99.90
23544;DHT22;11950;51.230;4.012;2023-07-20T00:13:44;18.40;99.90
23544;DHT22;11950;51.230;4.012;2023-07-20T00:16:10;18.30;99.90
23544;DHT22;11950;51.230;4.012;2023-07-20T00:18:37;18.30;99.90
23544;DHT22;11950;51.230;4.012;2023-07-20T00:21:03;18.20;99.90
23544;DHT22;11950;51.230;4.012;2023-07-20T00:23:30;18.20;99.90
23544;DHT22;11950;51.230;4.012;2023-07-20T00:25:56;18.20;99.90
23544;DHT22;11950;51.230;4.012;2023-07-20T00:28:22;18.10;99.90
23544;DHT22;11950;51.230;4.012;2023-07-20T00:30:48;18.10;99.90
23544;DHT22;11950;51.230;4.012;2023-07-20T00:33:17;18.00;99.90
23544;DHT22;11950;51.230;4.012;2023-07-20T00:35:44;17.90;99.90
23544;DHT22;11950;51.230;4.012;2023-07-20T00:38:10;17.90;99.90
23544;DHT22;11950;51.230;4.012;2023-07-20T00:40:38;17.90;99.90
23544;DHT22;11950;51.230;4.012;2023-07-20T00:43:05;17.80;99.90
23544;DHT22;11950;51.230;4.012;2023-07-20T00:45:33;17.80;99.90
23544;DHT22;11950;51.230;4.012;2023-07-20T00:48:01;17.80;99.90
23544;DHT22;11950;51.230;4.012;2023-07-20T00:50:28;17.70;99.90
23544;DHT22;11950;51.230;4.012;2023-07-20T00:52:55;17.70;99.90
23544;DHT22;11950;51.230;4.012;2023-07-20T00:55:23;17.60;99.90
23544;DHT22;11950;51.230;4.012;2023-07-20T00:57:50;17.70;99.90
23544;DHT22;11950;51.230;4.012;2023-07-20T01:00:17;17.60;99.90
23544;DHT22;11950;51.230;4.012;2023-07-20T01:02:44;17.50;99.90
23544;DHT22;11950;51.230;4.012;2023-07-20T01:05:11;17.50;99.90
23544;DHT22;11950;51.230;4.012;2023-07-20T01:07:55;17.50;99.90
23544;DHT22;11950;51.230;4.012;2023-07-20T01:13:00;17.50;99.90
23544;DHT22;11950;51.230;4.012;2023-07-20T01:15:27;17.60;99.90
23544;DHT22;11950;51.230;4.012;2023-07-20T01:17:54;17.50;99.90
23544;DHT22;11950;51.230;4.012;2023-07-20T01:20:21;17.50;99.90
23544;DHT22;11950;51.230;4.012;2023-07-20T01:33:42;17.30;99.90
23544;DHT22;11950;51.230;4.012;2023-07-20T01:36:10;17.30;99.90
23544;DHT22;11950;51.230;4.012;2023-07-20T01:38:37;17.30;99.90
23544;DHT22;11950;51.230;4.012;2023-07-20T01:41:04;17.30;99.90
23544;DHT22;11950;51.230;4.012;2023-07-20T01:43:31;17.30;99.90
23544;DHT22;11950;51.230;4.012;2023-07-20T01:45:57;17.30;99.90
23544;DHT22;11950;51.230;4.012;2023-07-20T01:48:24;17.30;99.90
23544;DHT22;11950;51.230;4.012;2023-07-20T01:50:50;17.30;99.90
23544;DHT22;11950;51.230;4.012;2023-07-20T01:53:17;17.20;99.90
23544;DHT22;11950;51.230;4.012;2023-07-20T01:55:43;17.20;99.90
23544;DHT22;11950;51.230;4.012;2023-07-20T01:58:09;17.20;99.90
23544;DHT22;11950;51.230;4.012;2023-07-20T02:00:39;17.20;99.90
23544;DHT22;11950;51.230;4.012;2023-07-20T02:03:05;17.20;99.90
23544;DHT22;11950;51.230;4.012;2023-07-20T02:05:32;17.10;99.90
23544;DHT22;11950;51.230;4.012;2023-07-20T02:07:58;17.10;99.90
23544;DHT22;11950;51.230;4.012;2023-07-20T02:10:24;17.00;99.90
23544;DHT22;11950;51.230;4.012;2023-07-20T02:12:51;17.00;99.90
23544;DHT22;11950;51.230;4.012;2023-07-20T02:15:17;16.90;99.90
23544;DHT22;11950;51.230;4.012;2023-07-20T02:17:45;16.90;99.90
23544;DHT22;11950;51.230;4.012;2023-07-20T02:20:11;16.90;99.90
23544;DHT22;11950;51.230;4.012;2023-07-20T02:22:38;16.80;99.90
23544;DHT22;11950;51.230;4.012;2023-07-20T02:25:05;16.80;99.90
23544;DHT22;11950;51.230;4.012;2023-07-20T02:27:31;16.80;99.90
23544;DHT22;11950;51.230;4.012;2023-07-20T02:29:58;16.80;99.90
23544;DHT22;11950;51.230;4.012;2023-07-20T02:32:24;16.70;99.90
23544;DHT22;11950;51.230;4.012;2023-07-20T02:34:50;16.70;99.90
23544;DHT22;11950;51.230;4.012;2023-07-20T02:37:17;16.70;99.90
23544;DHT22;11950;51.230;4.012;2023-07-20T02:39:43;16.60;99.90
23544;DHT22;11950;51.230;4.012;2023-07-20T02:42:10;16.60;99.90
23544;DHT22;11950;51.230;4.012;2023-07-20T02:44:36;16.70;99.90
23544;DHT22;11950;51.230;4.012;2023-07-20T02:47:02;16.70;99.90
23544;DHT22;11950;51.230;4.012;2023-07-20T02:49:28;16.80;99.90
23544;DHT22;11950;51.230;4.012;2023-07-20T02:51:55;16.70;99.90
23544;DHT22;11950;51.230;4.012;2023-07-20T02:54:21;16.70;99.90
23544;DHT22;11950;51.230;4.012;2023-07-20T02:56:47;16.70;99.90
23544;DHT22;11950;51.230;4.012;2023-07-20T02:59:14;16.70;99.90
23544;DHT22;11950;51.230;4.012;2023-07-20T03:01:40;16.70;99.90
23544;DHT22;11950;51.230;4.012;2023-07-20T03:04:08;16.70;99.90
23544;DHT22;11950;51.230;4.012;2023-07-20T03:06:36;16.70;99.90
23544;DHT22;11950;51.230;4.012;2023-07-20T03:09:03;16.70;99.90
23544;DHT22;11950;51.230;4.012;2023-07-20T03:11:29;16.70;99.90
23544;DHT22;11950;51.230;4.012;2023-07-20T03:13:57;16.70;99.90
23544;DHT22;11950;51.230;4.012;2023-07-20T03:16:24;16.80;99.90
23544;DHT22;11950;51.230;4.012;2023-07-20T03:18:52;16.80;99.90
23544;DHT22;11950;51.230;4.012;2023-07-20T03:21:19;16.80;99.90
23544;DHT22;11950;51.230;4.012;2023-07-20T03:23:45;16.80;99.90
23544;DHT22;11950;51.230;4.012;2023-07-20T03:26:12;16.80;99.90
23544;DHT22;11950;51.230;4.012;2023-07-20T03:28:38;16.80;99.90
23544;DHT22;11950;51.230;4.012;2023-07-20T03:31:05;16.80;99.90
23544;DHT22;11950;51.230;4.012;2023-07-20T03:33:35;16.80;99.90
23544;DHT22;11950;51.230;4.012;2023-07-20T03:36:01;16.80;99.90
23544;DHT22;11950;51.230;4.012;2023-07-20T03:38:27;16.80;99.90
23544;DHT22;11950;51.230;4.012;2023-07-20T03:40:59;16.80;99.90
23544;DHT22;11950;51.230;4.012;2023-07-20T03:43:26;16.80;99.90
23544;DHT22;11950;51.230;4.012;2023-07-20T03:45:54;16.70;99.90
23544;DHT22;11950;51.230;4.012;2023-07-20T03:48:22;16.70;99.90
23544;DHT22;11950;51.230;4.012;2023-07-20T03:50:51;16.70;99.90
23544;DHT22;11950;51.230;4.012;2023-07-20T03:53:18;16.70;99.90
23544;DHT22;11950;51.230;4.012;2023-07-20T03:55:45;16.80;99.90
23544;DHT22;11950;51.230;4.012;2023-07-20T03:58:13;16.80;99.90
23544;DHT22;11950;51.230;4.012;2023-07-20T04:00:39;16.90;99.90
23544;DHT22;11950;51.230;4.012;2023-07-20T04:03:06;16.90;99.90
23544;DHT22;11950;51.230;4.012;2023-07-20T04:05:33;17.00;99.90
23544;DHT22;11950;51.230;4.012;2023-07-20T04:07:59;17.00;99.90
23544;DHT22;11950;51.230;4.012;2023-07-20T04:10:25;17.00;99.90
23544;DHT22;11950;51.230;4.012;2023-07-20T04:12:52;17.00;99.90
23544;DHT22;11950;51.230;4.012;2023-07-20T04:15:18;17.10;99.90
23544;DHT22;11950;51.230;4.012;2023-07-20T04:17:48;17.10;99.90
23544;DHT22;11950;51.230;4.012;2023-07-20T04:20:15;17.10;99.90
23544;DHT22;11950;51.230;4.012;2023-07-20T04:22:41;17.10;99.90
23544;DHT22;11950;51.230;4.012;2023-07-20T04:25:11;17.10;99.90
23544;DHT22;11950;51.230;4.012;2023-07-20T04:27:37;17.20;99.90
23544;DHT22;11950;51.230;4.012;2023-07-20T04:30:03;17.20;99.90
23544;DHT22;11950;51.230;4.012;2023-07-20T04:32:31;17.20;99.90
23544;DHT22;11950;51.230;4.012;2023-07-20T04:35:01;17.20;99.90
23544;DHT22;11950;51.230;4.012;2023-07-20T04:37:30;17.30;99.90
23544;DHT22;11950;51.230;4.012;2023-07-20T04:39:56;17.30;99.90
23544;DHT22;11950;51.230;4.012;2023-07-20T04:42:23;17.30;99.90
23544;DHT22;11950;51.230;4.012;2023-07-20T04:44:49;17.30;99.90
23544;DHT22;11950;51.230;4.012;2023-07-20T04:47:16;17.30;99.90
23544;DHT22;11950;51.230;4.012;2023-07-20T04:49:42;17.20;99.90
23544;DHT22;11950;51.230;4.012;2023-07-20T04:52:09;17.20;99.90
23544;DHT22;11950;51.230;4.012;2023-07-20T04:54:35;17.20;99.90
23544;DHT22;11950;51.230;4.012;2023-07-20T04:57:02;17.20;99.90
23544;DHT22;11950;51.230;4.012;2023-07-20T04:59:30;17.20;99.90
23544;DHT22;11950;51.230;4.012;2023-07-20T05:01:58;17.30;99.90
23544;DHT22;11950;51.230;4.012;2023-07-20T05:04:25;17.30;99.90
23544;DHT22;11950;51.230;4.012;2023-07-20T05:06:51;17.30;99.90
23544;DHT22;11950;51.230;4.012;2023-07-20T05:09:17;17.30;99.90
23544;DHT22;11950;51.230;4.012;2023-07-20T05:11:43;17.30;99.90
23544;DHT22;11950;51.230;4.012;2023-07-20T05:14:11;17.30;99.90
23544;DHT22;11950;51.230;4.012;2023-07-20T05:16:38;17.30;99.90
23544;DHT22;11950;51.230;4.012;2023-07-20T05:19:06;17.40;99.90
23544;DHT22;11950;51.230;4.012;2023-07-20T05:21:32;17.40;99.90
23544;DHT22;11950;51.230;4.012;2023-07-20T05:23:58;17.40;99.90
23544;DHT22;11950;51.230;4.012;2023-07-20T05:26:24;17.50;99.90
23544;DHT22;11950;51.230;4.012;2023-07-20T05:28:51;17.50;99.90
23544;DHT22;11950;51.230;4.012;2023-07-20T05:31:17;17.50;99.90
23544;DHT22;11950;51.230;4.012;2023-07-20T05:33:43;17.60;99.90
23544;DHT22;11950;51.230;4.012;2023-07-20T05:36:09;17.60;99.90
23544;DHT22;11950;51.230;4.012;2023-07-20T05:38:35;17.60;99.90
23544;DHT22;11950;51.230;4.012;2023-07-20T05:41:02;17.60;99.90
23544;DHT22;11950;51.230;4.012;2023-07-20T05:43:28;17.70;99.90
23544;DHT22;11950;51.230;4.012;2023-07-20T05:45:54;17.70;99.90
23544;DHT22;11950;51.230;4.012;2023-07-20T05:48:20;17.80;99.90
23544;DHT22;11950;51.230;4.012;2023-07-20T05:50:47;17.90;99.90
23544;DHT22;11950;51.230;4.012;2023-07-20T05:53:13;18.00;99.90
23544;DHT22;11950;51.230;4.012;2023-07-20T05:55:39;18.00;99.90
23544;DHT22;11950;51.230;4.012;2023-07-20T05:58:06;18.10;99.90
23544;DHT22;11950;51.230;4.012;2023-07-20T06:00:32;18.20;99.90
23544;DHT22;11950;51.230;4.012;2023-07-20T06:02:58;18.20;99.90
23544;DHT22;11950;51.230;4.012;2023-07-20T06:05:24;18.30;99.90
23544;DHT22;11950;51.230;4.012;2023-07-20T06:07:50;18.40;99.90
23544;DHT22;11950;51.230;4.012;2023-07-20T06:10:17;18.40;99.90
23544;DHT22;11950;51.230;4.012;2023-07-20T06:12:43;18.40;99.90
23544;DHT22;11950;51.230;4.012;2023-07-20T06:15:26;18.50;99.90
23544;DHT22;11950;51.230;4.012;2023-07-20T06:17:54;18.60;99.90
23544;DHT22;11950;51.230;4.012;2023-07-20T06:20:21;18.70;99.90
23544;DHT22;11950;51.230;4.012;2023-07-20T06:22:47;18.70;99.90
23544;DHT22;11950;51.230;4.012;2023-07-20T06:25:14;18.70;99.90
23544;DHT22;11950;51.230;4.012;2023-07-20T06:27:40;18.80;99.90
23544;DHT22;11950;51.230;4.012;2023-07-20T06:30:06;18.90;99.90
23544;DHT22;11950;51.230;4.012;2023-07-20T06:32:33;18.90;99.90
23544;DHT22;11950;51.230;4.012;2023-07-20T06:34:59;19.00;99.90
23544;DHT22;11950;51.230;4.012;2023-07-20T06:37:25;19.00;99.90
23544;DHT22;11950;51.230;4.012;2023-07-20T06:39:52;19.00;99.90
23544;DHT22;11950;51.230;4.012;2023-07-20T06:42:18;19.10;99.90
23544;DHT22;11950;51.230;4.012;2023-07-20T06:44:44;19.20;99.90
23544;DHT22;11950;51.230;4.012;2023-07-20T06:47:11;19.20;99.90
23544;DHT22;11950;51.230;4.012;2023-07-20T06:49:38;19.20;99.90
23544;DHT22;11950;51.230;4.012;2023-07-20T06:52:04;19.20;99.90
23544;DHT22;11950;51.230;4.012;2023-07-20T06:54:31;19.20;99.90
23544;DHT22;11950;51.230;4.012;2023-07-20T06:56:57;19.30;99.90
23544;DHT22;11950;51.230;4.012;2023-07-20T06:59:23;19.30;99.90
23544;DHT22;11950;51.230;4.012;2023-07-20T07:01:50;19.40;99.90
23544;DHT22;11950;51.230;4.012;2023-07-20T07:04:16;19.40;99.90
23544;DHT22;11950;51.230;4.012;2023-07-20T07:06:43;19.50;99.90
23544;DHT22;11950;51.230;4.012;2023-07-20T07:09:10;19.60;99.90
23544;DHT22;11950;51.230;4.012;2023-07-20T07:11:36;19.60;99.90
23544;DHT22;11950;51.230;4.012;2023-07-20T07:14:02;19.60;99.90
23544;DHT22;11950;51.230;4.012;2023-07-20T07:16:29;19.70;99.90
23544;DHT22;11950;51.230;4.012;2023-07-20T07:18:55;19.80;99.90
23544;DHT22;11950;51.230;4.012;2023-07-20T07:21:21;19.80;99.90
23544;DHT22;11950;51.230;4.012;2023-07-20T07:23:48;19.80;99.90
23544;DHT22;11950;51.230;4.012;2023-07-20T07:26:15;19.80;99.90
23544;DHT22;11950;51.230;4.012;2023-07-20T07:28:42;19.80;99.90
23544;DHT22;11950;51.230;4.012;2023-07-20T07:31:09;19.90;99.90
23544;DHT22;11950;51.230;4.012;2023-07-20T07:33:35;19.90;99.90
23544;DHT22;11950;51.230;4.012;2023-07-20T07:36:02;19.90;99.90
23544;DHT22;11950;51.230;4.012;2023-07-20T07:38:28;20.00;99.90
23544;DHT22;11950;51.230;4.012;2023-07-20T07:40:55;20.00;99.90
23544;DHT22;11950;51.230;4.012;2023-07-20T07:43:21;20.00;99.90
23544;DHT22;11950;51.230;4.012;2023-07-20T07:45:47;20.00;99.90
23544;DHT22;11950;51.230;4.012;2023-07-20T07:48:13;20.00;99.90
23544;DHT22;11950;51.230;4.012;2023-07-20T07:50:40;20.10;99.90
23544;DHT22;11950;51.230;4.012;2023-07-20T07:53:07;20.00;99.90
23544;DHT22;11950;51.230;4.012;2023-07-20T07:55:35;20.10;99.90
23544;DHT22;11950;51.230;4.012;2023-07-20T07:58:01;20.10;99.90
23544;DHT22;11950;51.230;4.012;2023-07-20T08:00:27;20.10;99.90
23544;DHT22;11950;51.230;4.012;2023-07-20T08:02:53;20.20;99.90
23544;DHT22;11950;51.230;4.012;2023-07-20T08:05:19;20.10;99.90
23544;DHT22;11950;51.230;4.012;2023-07-20T08:07:46;20.20;99.90
23544;DHT22;11950;51.230;4.012;2023-07-20T08:10:12;20.30;99.90
23544;DHT22;11950;51.230;4.012;2023-07-20T08:12:38;20.40;99.90
23544;DHT22;11950;51.230;4.012;2023-07-20T08:15:05;20.40;99.90
23544;DHT22;11950;51.230;4.012;2023-07-20T08:17:31;20.40;99.90
23544;DHT22;11950;51.230;4.012;2023-07-20T08:19:57;20.50;99.90
23544;DHT22;11950;51.230;4.012;2023-07-20T08:22:24;20.50;99.90
23544;DHT22;11950;51.230;4.012;2023-07-20T08:24:50;20.60;99.90
23544;DHT22;11950;51.230;4.012;2023-07-20T08:27:16;20.60;99.90
23544;DHT22;11950;51.230;4.012;2023-07-20T08:29:42;20.70;99.90
23544;DHT22;11950;51.230;4.012;2023-07-20T08:32:08;20.70;99.90
23544;DHT22;11950;51.230;4.012;2023-07-20T08:34:35;20.70;99.90
23544;DHT22;11950;51.230;4.012;2023-07-20T08:37:01;20.70;99.90
23544;DHT22;11950;51.230;4.012;2023-07-20T08:39:27;20.70;99.90
23544;DHT22;11950;51.230;4.012;2023-07-20T08:41:54;20.70;99.90
23544;DHT22;11950;51.230;4.012;2023-07-20T08:44:21;20.70;99.90
23544;DHT22;11950;51.230;4.012;2023-07-20T08:46:49;20.70;99.90
23544;DHT22;11950;51.230;4.012;2023-07-20T08:49:17;20.80;99.90
23544;DHT22;11950;51.230;4.012;2023-07-20T08:51:46;20.80;99.90
23544;DHT22;11950;51.230;4.012;2023-07-20T08:54:13;20.80;99.90
23544;DHT22;11950;51.230;4.012;2023-07-20T08:56:41;20.80;99.90
23544;DHT22;11950;51.230;4.012;2023-07-20T08:59:08;20.90;99.90
23544;DHT22;11950;51.230;4.012;2023-07-20T09:01:36;20.90;99.90
23544;DHT22;11950;51.230;4.012;2023-07-20T09:04:03;21.00;99.90
23544;DHT22;11950;51.230;4.012;2023-07-20T09:06:29;21.10;99.90
23544;DHT22;11950;51.230;4.012;2023-07-20T09:08:56;21.20;99.90
23544;DHT22;11950;51.230;4.012;2023-07-20T09:11:22;21.20;99.90
23544;DHT22;11950;51.230;4.012;2023-07-20T09:14:03;21.30;99.90
23544;DHT22;11950;51.230;4.012;2023-07-20T09:16:29;21.30;99.90
23544;DHT22;11950;51.230;4.012;2023-07-20T09:18:58;21.40;99.90
23544;DHT22;11950;51.230;4.012;2023-07-20T09:21:29;21.40;99.90
23544;DHT22;11950;51.230;4.012;2023-07-20T09:23:56;21.50;99.90
23544;DHT22;11950;51.230;4.012;2023-07-20T09:26:23;21.40;99.90
23544;DHT22;11950;51.230;4.012;2023-07-20T09:28:52;21.50;99.90
23544;DHT22;11950;51.230;4.012;2023-07-20T09:31:20;21.50;99.90
23544;DHT22;11950;51.230;4.012;2023-07-20T09:33:48;21.60;99.90
23544;DHT22;11950;51.230;4.012;2023-07-20T09:36:15;21.60;99.90
23544;DHT22;11950;51.230;4.012;2023-07-20T09:38:41;21.60;99.90
23544;DHT22;11950;51.230;4.012;2023-07-20T09:41:14;21.60;99.90
23544;DHT22;11950;51.230;4.012;2023-07-20T09:43:45;20.60;99.90
23544;DHT22;11950;51.230;4.012;2023-07-20T09:46:11;21.70;99.90
23544;DHT22;11950;51.230;4.012;2023-07-20T09:48:38;21.70;99.90
23544;DHT22;11950;51.230;4.012;2023-07-20T09:51:05;21.70;99.90
23544;DHT22;11950;51.230;4.012;2023-07-20T09:53:33;21.80;99.90
23544;DHT22;11950;51.230;4.012;2023-07-20T09:56:00;21.90;99.90
23544;DHT22;11950;51.230;4.012;2023-07-20T09:58:28;22.00;99.90
23544;DHT22;11950;51.230;4.012;2023-07-20T10:00:57;22.00;99.90
23544;DHT22;11950;51.230;4.012;2023-07-20T10:03:28;22.00;99.90
23544;DHT22;11950;51.230;4.012;2023-07-20T10:05:57;22.10;99.90
23544;DHT22;11950;51.230;4.012;2023-07-20T10:08:25;22.20;99.90
23544;DHT22;11950;51.230;4.012;2023-07-20T10:10:52;22.20;99.90
23544;DHT22;11950;51.230;4.012;2023-07-20T10:13:25;22.20;99.90
23544;DHT22;11950;51.230;4.012;2023-07-20T10:16:21;22.20;99.90
23544;DHT22;11950;51.230;4.012;2023-07-20T10:18:59;22.30;99.90
23544;DHT22;11950;51.230;4.012;2023-07-20T10:21:29;22.40;99.90
23544;DHT22;11950;51.230;4.012;2023-07-20T10:23:59;22.20;99.90
23544;DHT22;11950;51.230;4.012;2023-07-20T10:26:26;22.30;99.90
23544;DHT22;11950;51.230;4.012;2023-07-20T10:28:53;22.30;99.90
23544;DHT22;11950;51.230;4.012;2023-07-20T10:31:20;22.30;99.90
23544;DHT22;11950;51.230;4.012;2023-07-20T10:33:47;22.30;99.90
23544;DHT22;11950;51.230;4.012;2023-07-20T10:36:13;22.30;99.90
23544;DHT22;11950;51.230;4.012;2023-07-20T10:38:52;22.30;99.90
23544;DHT22;11950;51.230;4.012;2023-07-20T10:41:28;22.20;99.90
23544;DHT22;11950;51.230;4.012;2023-07-20T10:44:08;22.30;99.90
23544;DHT22;11950;51.230;4.012;2023-07-20T10:46:42;22.30;99.90
23544;DHT22;11950;51.230;4.012;2023-07-20T10:49:13;22.50;99.90
23544;DHT22;11950;51.230;4.012;2023-07-20T10:51:45;22.50;99.90
23544;DHT22;11950;51.230;4.012;2023-07-20T10:56:48;22.60;99.90
23544;DHT22;11950;51.230;4.012;2023-07-20T11:01:56;22.80;99.90
23544;DHT22;11950;51.230;4.012;2023-07-20T11:04:41;22.80;99.90
23544;DHT22;11950;51.230;4.012;2023-07-20T11:07:09;22.90;99.90
23544;DHT22;11950;51.230;4.012;2023-07-20T11:09:36;22.90;99.90
23544;DHT22;11950;51.230;4.012;2023-07-20T11:12:29;23.00;99.90
23544;DHT22;11950;51.230;4.012;2023-07-20T11:14:57;23.00;99.90
23544;DHT22;11950;51.230;4.012;2023-07-20T11:17:30;23.10;99.90
23544;DHT22;11950;51.230;4.012;2023-07-20T11:19:57;23.30;99.90
23544;DHT22;11950;51.230;4.012;2023-07-20T11:22:24;23.40;99.90
23544;DHT22;11950;51.230;4.012;2023-07-20T11:24:50;23.50;99.90
23544;DHT22;11950;51.230;4.012;2023-07-20T11:27:21;23.70;99.90
23544;DHT22;11950;51.230;4.012;2023-07-20T11:29:48;23.80;99.90
23544;DHT22;11950;51.230;4.012;2023-07-20T11:32:22;23.90;99.90
23544;DHT22;11950;51.230;4.012;2023-07-20T11:34:48;23.90;99.90
23544;DHT22;11950;51.230;4.012;2023-07-20T11:37:16;23.80;99.90
23544;DHT22;11950;51.230;4.012;2023-07-20T11:39:43;23.80;99.90
23544;DHT22;11950;51.230;4.012;2023-07-20T11:42:09;23.80;99.90
23544;DHT22;11950;51.230;4.012;2023-07-20T11:44:36;23.80;99.90
23544;DHT22;11950;51.230;4.012;2023-07-20T11:47:07;23.70;99.90
23544;DHT22;11950;51.230;4.012;2023-07-20T11:49:39;23.60;99.90
23544;DHT22;11950;51.230;4.012;2023-07-20T11:52:06;23.50;99.90
23544;DHT22;11950;51.230;4.012;2023-07-20T11:54:34;23.50;99.90
23544;DHT22;11950;51.230;4.012;2023-07-20T11:57:02;23.50;99.90
23544;DHT22;11950;51.230;4.012;2023-07-20T11:59:28;23.40;99.90
23544;DHT22;11950;51.230;4.012;2023-07-20T12:01:55;23.40;99.90
23544;DHT22;11950;51.230;4.012;2023-07-20T12:04:23;23.50;99.90
23544;DHT22;11950;51.230;4.012;2023-07-20T12:06:49;23.50;99.90
23544;DHT22;11950;51.230;4.012;2023-07-20T12:09:17;23.50;99.90
23544;DHT22;11950;51.230;4.012;2023-07-20T12:11:44;23.60;99.90
23544;DHT22;11950;51.230;4.012;2023-07-20T12:14:13;23.60;99.90
23544;DHT22;11950;51.230;4.012;2023-07-20T12:16:39;23.60;99.90
23544;DHT22;11950;51.230;4.012;2023-07-20T12:19:11;23.60;99.90
23544;DHT22;11950;51.230;4.012;2023-07-20T12:21:40;23.60;99.90
23544;DHT22;11950;51.230;4.012;2023-07-20T12:24:08;23.50;99.90
23544;DHT22;11950;51.230;4.012;2023-07-20T12:26:36;23.50;99.90
23544;DHT22;11950;51.230;4.012;2023-07-20T12:29:02;23.30;99.90
23544;DHT22;11950;51.230;4.012;2023-07-20T12:31:36;23.30;99.90
23544;DHT22;11950;51.230;4.012;2023-07-20T12:34:02;23.30;99.90
23544;DHT22;11950;51.230;4.012;2023-07-20T12:36:28;23.20;99.90
23544;DHT22;11950;51.230;4.012;2023-07-20T12:38:54;23.20;99.90
23544;DHT22;11950;51.230;4.012;2023-07-20T12:41:21;23.20;99.90
23544;DHT22;11950;51.230;4.012;2023-07-20T12:43:47;23.20;99.90
23544;DHT22;11950;51.230;4.012;2023-07-20T12:46:13;23.10;99.90
23544;DHT22;11950;51.230;4.012;2023-07-20T12:48:40;23.10;99.90
23544;DHT22;11950;51.230;4.012;2023-07-20T12:51:08;23.10;99.90
23544;DHT22;11950;51.230;4.012;2023-07-20T12:53:35;23.00;99.90
23544;DHT22;11950;51.230;4.012;2023-07-20T12:56:02;23.00;99.90
23544;DHT22;11950;51.230;4.012;2023-07-20T12:58:28;23.00;99.90
23544;DHT22;11950;51.230;4.012;2023-07-20T13:00:54;23.00;99.90
23544;DHT22;11950;51.230;4.012;2023-07-20T13:03:21;23.10;99.90
23544;DHT22;11950;51.230;4.012;2023-07-20T13:05:47;23.10;99.90
23544;DHT22;11950;51.230;4.012;2023-07-20T13:08:15;23.10;99.90
23544;DHT22;11950;51.230;4.012;2023-07-20T13:10:41;23.20;99.90
23544;DHT22;11950;51.230;4.012;2023-07-20T13:13:07;23.30;99.90
23544;DHT22;11950;51.230;4.012;2023-07-20T13:15:42;23.40;99.90
23544;DHT22;11950;51.230;4.012;2023-07-20T13:18:09;23.50;99.90
23544;DHT22;11950;51.230;4.012;2023-07-20T13:20:35;23.60;99.90
23544;DHT22;11950;51.230;4.012;2023-07-20T13:23:01;23.50;99.90
23544;DHT22;11950;51.230;4.012;2023-07-20T13:25:27;23.50;99.90
23544;DHT22;11950;51.230;4.012;2023-07-20T13:27:54;23.50;99.90
23544;DHT22;11950;51.230;4.012;2023-07-20T13:30:20;23.50;99.90
23544;DHT22;11950;51.230;4.012;2023-07-20T13:32:47;23.50;99.90
23544;DHT22;11950;51.230;4.012;2023-07-20T13:35:14;23.40;99.90
23544;DHT22;11950;51.230;4.012;2023-07-20T13:37:40;23.40;99.90
23544;DHT22;11950;51.230;4.012;2023-07-20T13:40:07;23.30;99.90
23544;DHT22;11950;51.230;4.012;2023-07-20T13:42:39;23.20;99.90
23544;DHT22;11950;51.230;4.012;2023-07-20T13:45:06;23.10;99.90
23544;DHT22;11950;51.230;4.012;2023-07-20T13:47:33;23.00;99.90
23544;DHT22;11950;51.230;4.012;2023-07-20T13:49:59;23.00;99.90
23544;DHT22;11950;51.230;4.012;2023-07-20T13:52:26;22.90;99.90
23544;DHT22;11950;51.230;4.012;2023-07-20T13:54:53;22.80;99.90
23544;DHT22;11950;51.230;4.012;2023-07-20T13:57:19;22.70;99.90
23544;DHT22;11950;51.230;4.012;2023-07-20T13:59:45;22.60;99.90
23544;DHT22;11950;51.230;4.012;2023-07-20T14:02:13;22.40;99.90
23544;DHT22;11950;51.230;4.012;2023-07-20T14:04:40;22.40;99.90
23544;DHT22;11950;51.230;4.012;2023-07-20T14:07:07;22.20;99.90
23544;DHT22;11950;51.230;4.012;2023-07-20T14:09:33;22.00;99.90
23544;DHT22;11950;51.230;4.012;2023-07-20T14:11:59;21.90;99.90
23544;DHT22;11950;51.230;4.012;2023-07-20T14:14:26;21.70;99.90
23544;DHT22;11950;51.230;4.012;2023-07-20T14:16:52;21.70;99.90
23544;DHT22;11950;51.230;4.012;2023-07-20T14:19:18;21.60;99.90
23544;DHT22;11950;51.230;4.012;2023-07-20T14:21:44;21.50;99.90
23544;DHT22;11950;51.230;4.012;2023-07-20T14:24:10;21.30;99.90
23544;DHT22;11950;51.230;4.012;2023-07-20T14:26:37;21.30;99.90
23544;DHT22;11950;51.230;4.012;2023-07-20T14:29:04;21.10;99.90
23544;DHT22;11950;51.230;4.012;2023-07-20T14:31:30;20.90;99.90
23544;DHT22;11950;51.230;4.012;2023-07-20T14:33:56;20.70;99.90
23544;DHT22;11950;51.230;4.012;2023-07-20T14:36:22;20.60;99.90
23544;DHT22;11950;51.230;4.012;2023-07-20T14:38:49;20.50;99.90
23544;DHT22;11950;51.230;4.012;2023-07-20T14:41:15;20.40;99.90
23544;DHT22;11950;51.230;4.012;2023-07-20T14:43:41;20.40;99.90
23544;DHT22;11950;51.230;4.012;2023-07-20T14:46:08;20.30;99.90
23544;DHT22;11950;51.230;4.012;2023-07-20T14:48:34;20.20;99.90
23544;DHT22;11950;51.230;4.012;2023-07-20T14:51:00;20.20;99.90
23544;DHT22;11950;51.230;4.012;2023-07-20T14:53:27;20.20;99.90
23544;DHT22;11950;51.230;4.012;2023-07-20T14:55:59;20.00;99.90
23544;DHT22;11950;51.230;4.012;2023-07-20T14:58:26;20.00;99.90
23544;DHT22;11950;51.230;4.012;2023-07-20T15:00:52;19.90;99.90
23544;DHT22;11950;51.230;4.012;2023-07-20T15:03:18;19.90;99.90
23544;DHT22;11950;51.230;4.012;2023-07-20T15:05:44;19.90;99.90
23544;DHT22;11950;51.230;4.012;2023-07-20T15:08:11;19.90;99.90
23544;DHT22;11950;51.230;4.012;2023-07-20T15:10:37;19.90;99.90
23544;DHT22;11950;51.230;4.012;2023-07-20T15:13:03;19.90;99.90
23544;DHT22;11950;51.230;4.012;2023-07-20T15:15:30;20.00;99.90
23544;DHT22;11950;51.230;4.012;2023-07-20T15:17:56;19.90;99.90
23544;DHT22;11950;51.230;4.012;2023-07-20T15:20:23;19.90;99.90
23544;DHT22;11950;51.230;4.012;2023-07-20T15:22:49;19.90;99.90
23544;DHT22;11950;51.230;4.012;2023-07-20T15:25:16;19.90;99.90
23544;DHT22;11950;51.230;4.012;2023-07-20T15:27:42;20.00;99.90
23544;DHT22;11950;51.230;4.012;2023-07-20T15:30:09;20.00;99.90
23544;DHT22;11950;51.230;4.012;2023-07-20T15:32:36;20.10;99.90
23544;DHT22;11950;51.230;4.012;2023-07-20T15:35:02;20.10;99.90
23544;DHT22;11950;51.230;4.012;2023-07-20T15:37:30;20.10;99.90
23544;DHT22;11950;51.230;4.012;2023-07-20T15:39:57;20.10;99.90
23544;DHT22;11950;51.230;4.012;2023-07-20T15:42:23;20.10;99.90
23544;DHT22;11950;51.230;4.012;2023-07-20T15:44:50;20.10;99.90
23544;DHT22;11950;51.230;4.012;2023-07-20T15:47:17;20.10;99.90
23544;DHT22;11950;51.230;4.012;2023-07-20T15:49:43;20.00;99.90